sensor_id;sensor_type;location;lat;lon;timestamp;P1;durP1;ratioP1;P2;durP2;ratioP2
77310;SDS011;66371;52.714;5.074;2023-02-26T00:01:24;751.78;;;723.35;;
77310;SDS011;66371;52.714;5.074;2023-02-26T00:03:53;745.15;;;716.22;;
77310;SDS011;66371;52.714;5.074;2023-02-26T00:06:23;753.55;;;722.67;;
77310;SDS011;66371;52.714;5.074;2023-02-26T00:08:49;765.03;;;734.72;;
77310;SDS011;66371;52.714;5.074;2023-02-26T00:11:15;767.50;;;737.38;;
77310;SDS011;66371;52.714;5.074;2023-02-26T00:13:41;768.03;;;737.38;;
77310;SDS011;66371;52.714;5.074;2023-02-26T00:16:13;773.22;;;742.42;;
77310;SDS011;66371;52.714;5.074;2023-02-26T00:18:43;766.25;;;735.53;;
77310;SDS011;66371;52.714;5.074;2023-02-26T00:21:14;780.47;;;748.53;;
77310;SDS011;66371;52.714;5.074;2023-02-26T00:23:44;790.97;;;758.17;;
77310;SDS011;66371;52.714;5.074;2023-02-26T00:26:10;804.65;;;771.08;;
77310;SDS011;66371;52.714;5.074;2023-02-26T00:28:36;806.75;;;773.17;;
77310;SDS011;66371;52.714;5.074;2023-02-26T00:33:27;816.00;;;781.20;;
77310;SDS011;66371;52.714;5.074;2023-02-26T00:35:54;824.85;;;789.13;;
77310;SDS011;66371;52.714;5.074;2023-02-26T00:38:28;823.38;;;787.08;;
77310;SDS011;66371;52.714;5.074;2023-02-26T00:40:57;843.90;;;806.88;;
77310;SDS011;66371;52.714;5.074;2023-02-26T00:43:23;824.90;;;788.83;;
77310;SDS011;66371;52.714;5.074;2023-02-26T00:46:07;829.13;;;793.28;;
77310;SDS011;66371;52.714;5.074;2023-02-26T00:51:40;842.03;;;803.72;;
77310;SDS011;66371;52.714;5.074;2023-02-26T00:54:21;851.08;;;812.72;;
77310;SDS011;66371;52.714;5.074;2023-02-26T00:56:49;855.30;;;817.38;;
77310;SDS011;66371;52.714;5.074;2023-02-26T00:59:16;858.10;;;819.35;;
77310;SDS011;66371;52.714;5.074;2023-02-26T01:01:42;852.92;;;814.47;;
77310;SDS011;66371;52.714;5.074;2023-02-26T01:04:08;854.15;;;815.42;;
77310;SDS011;66371;52.714;5.074;2023-02-26T01:06:36;861.10;;;821.63;;
77310;SDS011;66371;52.714;5.074;2023-02-26T01:11:48;842.42;;;802.20;;
77310;SDS011;66371;52.714;5.074;2023-02-26T01:14:14;847.88;;;806.28;;
77310;SDS011;66371;52.714;5.074;2023-02-26T01:16:43;826.10;;;785.33;;
77310;SDS011;66371;52.714;5.074;2023-02-26T01:19:21;808.95;;;767.45;;
77310;SDS011;66371;52.714;5.074;2023-02-26T01:22:05;788.00;;;747.33;;
77310;SDS011;66371;52.714;5.074;2023-02-26T01:24:37;802.95;;;761.45;;
77310;SDS011;66371;52.714;5.074;2023-02-26T01:27:02;800.70;;;759.00;;
77310;SDS011;66371;52.714;5.074;2023-02-26T01:29:31;814.47;;;771.42;;
77310;SDS011;66371;52.714;5.074;2023-02-26T01:32:18;806.35;;;765.33;;
77310;SDS011;66371;52.714;5.074;2023-02-26T01:34:53;798.88;;;756.95;;
77310;SDS011;66371;52.714;5.074;2023-02-26T01:37:46;804.10;;;762.35;;
77310;SDS011;66371;52.714;5.074;2023-02-26T01:42:51;785.88;;;743.88;;
77310;SDS011;66371;52.714;5.074;2023-02-26T01:45:27;777.78;;;735.70;;
77310;SDS011;66371;52.714;5.074;2023-02-26T01:48:01;744.08;;;701.20;;
77310;SDS011;66371;52.714;5.074;2023-02-26T01:50:31;738.63;;;696.13;;
77310;SDS011;66371;52.714;5.074;2023-02-26T01:55:28;752.90;;;709.10;;
77310;SDS011;66371;52.714;5.074;2023-02-26T01:57:55;735.30;;;691.97;;
77310;SDS011;66371;52.714;5.074;2023-02-26T02:03:02;711.67;;;665.97;;
77310;SDS011;66371;52.714;5.074;2023-02-26T02:05:32;723.35;;;679.00;;
77310;SDS011;66371;52.714;5.074;2023-02-26T02:08:03;763.33;;;716.33;;
77310;SDS011;66371;52.714;5.074;2023-02-26T02:10:32;744.13;;;696.72;;
77310;SDS011;66371;52.714;5.074;2023-02-26T02:13:04;713.58;;;665.65;;
77310;SDS011;66371;52.714;5.074;2023-02-26T02:15:36;748.67;;;701.53;;
77310;SDS011;66371;52.714;5.074;2023-02-26T02:21:05;710.97;;;664.03;;
